sensor_id;sensor_type;location;lat;lon;timestamp;pressure;altitude;pressure_sealevel;temperature;humidity
67345;BME280;54230;52.402;6.276;2022-07-18T00:00:00;102500.0;;;19.1;59.3
67345;BME280;54230;52.402;6.276;2022-07-18T00:05:00;102500.0;;;18.8;59.8
67345;BME280;54230;52.402;6.276;2022-07-18T00:10:00;102500.0;;;18.6;60.7
67345;BME280;54230;52.402;6.276;2022-07-18T00:15:01;102500.0;;;18.6;60.8
67345;BME280;54230;52.402;6.276;2022-07-18T00:20:00;102500.0;;;18.3;61.9
67345;BME280;54230;52.402;6.276;2022-07-18T00:25:00;102500.0;;;18.3;62.5
67345;BME280;54230;52.402;6.276;2022-07-18T00:30:00;102490.00000000001;;;18.1;62.4
67345;BME280;54230;52.402;6.276;2022-07-18T00:35:00;102490.00000000001;;;18.0;63.0
67345;BME280;54230;52.402;6.276;2022-07-18T00:40:00;102480.0;;;17.9;62.8
67345;BME280;54230;52.402;6.276;2022-07-18T00:45:00;102470.0;;;17.8;63.1
67345;BME280;54230;52.402;6.276;2022-07-18T00:50:00;102470.0;;;17.8;63.0
67345;BME280;54230;52.402;6.276;2022-07-18T00:55:00;102470.0;;;17.7;63.2
67345;BME280;54230;52.402;6.276;2022-07-18T01:00:00;102470.0;;;17.7;63.2
67345;BME280;54230;52.402;6.276;2022-07-18T01:05:00;102459.99999999999;;;17.7;63.4
67345;BME280;54230;52.402;6.276;2022-07-18T01:10:00;102459.99999999999;;;17.8;62.6
67345;BME280;54230;52.402;6.276;2022-07-18T01:15:00;102450.0;;;17.9;63.0
67345;BME280;54230;52.402;6.276;2022-07-18T01:20:00;102450.0;;;17.9;62.5
67345;BME280;54230;52.402;6.276;2022-07-18T01:25:00;102450.0;;;17.7;62.6
67345;BME280;54230;52.402;6.276;2022-07-18T01:30:00;102440.00000000001;;;17.5;63.1
67345;BME280;54230;52.402;6.276;2022-07-18T01:35:00;102440.00000000001;;;17.4;64.0
67345;BME280;54230;52.402;6.276;2022-07-18T01:40:00;102450.0;;;17.2;64.4
67345;BME280;54230;52.402;6.276;2022-07-18T01:45:00;102440.00000000001;;;17.2;64.3
67345;BME280;54230;52.402;6.276;2022-07-18T01:50:00;102440.00000000001;;;17.2;64.2
67345;BME280;54230;52.402;6.276;2022-07-18T01:55:00;102430.0;;;17.1;64.5
67345;BME280;54230;52.402;6.276;2022-07-18T02:00:00;102420.0;;;17.0;65.2
67345;BME280;54230;52.402;6.276;2022-07-18T02:05:00;102420.0;;;16.9;65.4
67345;BME280;54230;52.402;6.276;2022-07-18T02:10:01;102420.0;;;16.8;65.6
67345;BME280;54230;52.402;6.276;2022-07-18T02:15:00;102420.0;;;16.6;66.3
67345;BME280;54230;52.402;6.276;2022-07-18T02:20:00;102409.99999999999;;;16.5;66.7
67345;BME280;54230;52.402;6.276;2022-07-18T02:25:00;102420.0;;;16.5;66.7
67345;BME280;54230;52.402;6.276;2022-07-18T02:30:00;102409.99999999999;;;16.3;66.7
67345;BME280;54230;52.402;6.276;2022-07-18T02:35:00;102409.99999999999;;;16.1;66.9
67345;BME280;54230;52.402;6.276;2022-07-18T02:40:00;102409.99999999999;;;16.2;66.9
67345;BME280;54230;52.402;6.276;2022-07-18T02:45:00;102420.0;;;16.3;66.8
67345;BME280;54230;52.402;6.276;2022-07-18T02:50:00;102409.99999999999;;;16.3;66.8
67345;BME280;54230;52.402;6.276;2022-07-18T02:55:00;102409.99999999999;;;16.2;66.7
67345;BME280;54230;52.402;6.276;2022-07-18T03:00:00;102409.99999999999;;;16.2;67.0
67345;BME280;54230;52.402;6.276;2022-07-18T03:05:00;102409.99999999999;;;16.2;67.0
67345;BME280;54230;52.402;6.276;2022-07-18T03:10:00;102409.99999999999;;;16.2;66.9
67345;BME280;54230;52.402;6.276;2022-07-18T03:15:00;102409.99999999999;;;16.2;66.6
67345;BME280;54230;52.402;6.276;2022-07-18T03:20:00;102409.99999999999;;;16.1;66.5
67345;BME280;54230;52.402;6.276;2022-07-18T03:25:00;102409.99999999999;;;16.0;67.2
67345;BME280;54230;52.402;6.276;2022-07-18T03:30:00;102400.0;;;16.1;67.0
67345;BME280;54230;52.402;6.276;2022-07-18T03:35:00;102400.0;;;16.0;66.9
67345;BME280;54230;52.402;6.276;2022-07-18T03:40:00;102400.0;;;16.1;66.9
67345;BME280;54230;52.402;6.276;2022-07-18T03:45:00;102400.0;;;16.1;66.8
67345;BME280;54230;52.402;6.276;2022-07-18T03:50:00;102400.0;;;16.2;66.3
67345;BME280;54230;52.402;6.276;2022-07-18T03:55:00;102380.0;;;16.2;66.5
67345;BME280;54230;52.402;6.276;2022-07-18T04:00:00;102370.0;;;16.3;66.1
67345;BME280;54230;52.402;6.276;2022-07-18T04:05:00;102370.0;;;16.2;66.1
67345;BME280;54230;52.402;6.276;2022-07-18T04:10:00;102370.0;;;16.0;66.7
67345;BME280;54230;52.402;6.276;2022-07-18T04:15:00;102370.0;;;15.9;67.4
67345;BME280;54230;52.402;6.276;2022-07-18T04:20:00;102370.0;;;15.9;67.0
67345;BME280;54230;52.402;6.276;2022-07-18T04:25:00;102350.0;;;15.9;66.8
67345;BME280;54230;52.402;6.276;2022-07-18T04:30:00;102340.0;;;15.9;67.0
67345;BME280;54230;52.402;6.276;2022-07-18T04:35:00;102350.0;;;15.7;67.6
67345;BME280;54230;52.402;6.276;2022-07-18T04:40:01;102340.0;;;15.7;67.7
67345;BME280;54230;52.402;6.276;2022-07-18T04:45:00;102350.0;;;15.8;67.8
67345;BME280;54230;52.402;6.276;2022-07-18T04:50:00;102350.0;;;15.9;67.7
67345;BME280;54230;52.402;6.276;2022-07-18T04:55:00;102350.0;;;16.0;67.4
67345;BME280;54230;52.402;6.276;2022-07-18T05:00:00;102360.0;;;16.3;66.7
67345;BME280;54230;52.402;6.276;2022-07-18T05:05:00;102330.0;;;16.4;65.6
67345;BME280;54230;52.402;6.276;2022-07-18T05:10:00;102350.0;;;16.7;65.0
67345;BME280;54230;52.402;6.276;2022-07-18T05:15:00;102360.0;;;16.9;65.0
67345;BME280;54230;52.402;6.276;2022-07-18T05:20:00;102350.0;;;17.0;65.5
67345;BME280;54230;52.402;6.276;2022-07-18T05:25:00;102350.0;;;17.1;65.8
67345;BME280;54230;52.402;6.276;2022-07-18T05:30:00;102360.0;;;17.3;65.2
67345;BME280;54230;52.402;6.276;2022-07-18T05:35:00;102340.0;;;17.6;64.0
67345;BME280;54230;52.402;6.276;2022-07-18T05:40:00;102350.0;;;17.9;61.6
67345;BME280;54230;52.402;6.276;2022-07-18T05:45:00;102350.0;;;18.1;59.0
67345;BME280;54230;52.402;6.276;2022-07-18T05:50:00;102340.0;;;18.3;55.8
67345;BME280;54230;52.402;6.276;2022-07-18T05:55:00;102340.0;;;18.6;53.6
67345;BME280;54230;52.402;6.276;2022-07-18T06:00:00;102330.0;;;18.7;52.6
67345;BME280;54230;52.402;6.276;2022-07-18T06:05:00;102320.0;;;18.8;52.4
67345;BME280;54230;52.402;6.276;2022-07-18T06:10:00;102330.0;;;18.9;52.3
67345;BME280;54230;52.402;6.276;2022-07-18T06:15:00;102320.0;;;19.0;51.9
67345;BME280;54230;52.402;6.276;2022-07-18T06:20:00;102310.0;;;19.1;51.6
67345;BME280;54230;52.402;6.276;2022-07-18T06:25:00;102310.0;;;19.1;51.2
67345;BME280;54230;52.402;6.276;2022-07-18T06:30:00;102310.0;;;19.3;51.4
67345;BME280;54230;52.402;6.276;2022-07-18T06:35:00;102310.0;;;19.4;51.5
67345;BME280;54230;52.402;6.276;2022-07-18T06:40:00;102310.0;;;19.5;51.3
67345;BME280;54230;52.402;6.276;2022-07-18T06:45:00;102310.0;;;19.7;51.1
67345;BME280;54230;52.402;6.276;2022-07-18T06:50:00;102320.0;;;19.9;51.2
67345;BME280;54230;52.402;6.276;2022-07-18T06:55:00;102310.0;;;20.1;50.6
67345;BME280;54230;52.402;6.276;2022-07-18T07:00:00;102310.0;;;20.1;49.5
67345;BME280;54230;52.402;6.276;2022-07-18T07:05:00;102310.0;;;20.3;49.6
67345;BME280;54230;52.402;6.276;2022-07-18T07:10:00;102310.0;;;20.5;49.0
67345;BME280;54230;52.402;6.276;2022-07-18T07:15:00;102310.0;;;20.6;48.8
67345;BME280;54230;52.402;6.276;2022-07-18T07:20:00;102320.0;;;20.8;48.9
67345;BME280;54230;52.402;6.276;2022-07-18T07:25:00;102320.0;;;20.8;48.8
67345;BME280;54230;52.402;6.276;2022-07-18T07:30:00;102320.0;;;20.9;49.3
67345;BME280;54230;52.402;6.276;2022-07-18T07:35:00;102320.0;;;21.0;48.9
67345;BME280;54230;52.402;6.276;2022-07-18T07:40:00;102310.0;;;21.1;48.7
67345;BME280;54230;52.402;6.276;2022-07-18T07:45:00;102320.0;;;21.4;48.4
67345;BME280;54230;52.402;6.276;2022-07-18T07:50:00;102320.0;;;21.6;48.2
67345;BME280;54230;52.402;6.276;2022-07-18T07:55:00;102330.0;;;21.8;47.2
67345;BME280;54230;52.402;6.276;2022-07-18T08:00:00;102330.0;;;22.1;46.7
67345;BME280;54230;52.402;6.276;2022-07-18T08:05:00;102330.0;;;22.3;46.3
67345;BME280;54230;52.402;6.276;2022-07-18T08:10:00;102320.0;;;22.5;46.5
67345;BME280;54230;52.402;6.276;2022-07-18T08:15:00;102300.0;;;22.6;45.5
67345;BME280;54230;52.402;6.276;2022-07-18T08:20:00;102300.0;;;22.8;44.8
67345;BME280;54230;52.402;6.276;2022-07-18T08:25:00;102290.0;;;23.0;42.7
67345;BME280;54230;52.402;6.276;2022-07-18T08:30:00;102290.0;;;23.3;42.6
67345;BME280;54230;52.402;6.276;2022-07-18T08:35:00;102290.0;;;23.5;41.0
67345;BME280;54230;52.402;6.276;2022-07-18T08:40:00;102280.0;;;23.7;39.2
67345;BME280;54230;52.402;6.276;2022-07-18T08:45:01;102280.0;;;24.0;39.8
67345;BME280;54230;52.402;6.276;2022-07-18T08:50:01;102280.0;;;24.3;40.1
67345;BME280;54230;52.402;6.276;2022-07-18T08:55:00;102280.0;;;24.6;40.0
67345;BME280;54230;52.402;6.276;2022-07-18T09:00:01;102280.0;;;24.8;38.6
67345;BME280;54230;52.402;6.276;2022-07-18T09:05:01;102280.0;;;25.0;37.5
67345;BME280;54230;52.402;6.276;2022-07-18T09:10:02;102290.0;;;25.2;36.7
67345;BME280;54230;52.402;6.276;2022-07-18T09:15:04;102280.0;;;25.3;36.3
67345;BME280;54230;52.402;6.276;2022-07-18T09:20:02;102290.0;;;25.5;34.9
67345;BME280;54230;52.402;6.276;2022-07-18T09:25:03;102290.0;;;25.8;35.2
67345;BME280;54230;52.402;6.276;2022-07-18T09:30:07;102280.0;;;26.0;34.7
67345;BME280;54230;52.402;6.276;2022-07-18T09:35:04;102280.0;;;26.1;34.0
67345;BME280;54230;52.402;6.276;2022-07-18T09:40:14;102280.0;;;26.4;34.4
67345;BME280;54230;52.402;6.276;2022-07-18T09:45:00;102260.0;;;26.4;33.5
67345;BME280;54230;52.402;6.276;2022-07-18T09:50:00;102260.0;;;26.8;33.2
67345;BME280;54230;52.402;6.276;2022-07-18T09:55:04;102260.0;;;27.0;32.1
67345;BME280;54230;52.402;6.276;2022-07-18T10:00:00;102260.0;;;27.1;31.8
67345;BME280;54230;52.402;6.276;2022-07-18T10:05:00;102260.0;;;27.4;31.8
67345;BME280;54230;52.402;6.276;2022-07-18T10:10:00;102260.0;;;27.7;30.7
67345;BME280;54230;52.402;6.276;2022-07-18T10:15:00;102260.0;;;27.7;28.6
67345;BME280;54230;52.402;6.276;2022-07-18T10:20:03;102250.0;;;28.0;29.2
67345;BME280;54230;52.402;6.276;2022-07-18T10:25:03;102250.0;;;28.1;28.3
67345;BME280;54230;52.402;6.276;2022-07-18T10:30:06;102250.0;;;28.2;28.0
67345;BME280;54230;52.402;6.276;2022-07-18T10:35:00;102250.0;;;28.5;28.0
67345;BME280;54230;52.402;6.276;2022-07-18T10:45:00;102250.0;;;29.4;26.5
67345;BME280;54230;52.402;6.276;2022-07-18T10:50:02;102240.0;;;29.3;25.6
67345;BME280;54230;52.402;6.276;2022-07-18T11:00:03;102240.0;;;29.5;26.2
67345;BME280;54230;52.402;6.276;2022-07-18T11:05:00;102240.0;;;29.5;25.7
67345;BME280;54230;52.402;6.276;2022-07-18T11:10:00;102240.0;;;29.2;26.5
67345;BME280;54230;52.402;6.276;2022-07-18T11:15:02;102230.0;;;29.2;26.8
67345;BME280;54230;52.402;6.276;2022-07-18T11:25:00;102230.0;;;29.6;26.3
67345;BME280;54230;52.402;6.276;2022-07-18T11:30:00;102220.0;;;29.8;26.1
67345;BME280;54230;52.402;6.276;2022-07-18T11:35:00;102210.0;;;30.0;26.5
67345;BME280;54230;52.402;6.276;2022-07-18T11:40:04;102210.0;;;29.8;27.1
67345;BME280;54230;52.402;6.276;2022-07-18T11:45:00;102200.0;;;29.4;26.8
67345;BME280;54230;52.402;6.276;2022-07-18T11:50:00;102200.0;;;29.4;27.5
67345;BME280;54230;52.402;6.276;2022-07-18T11:55:00;102200.0;;;29.8;27.2
67345;BME280;54230;52.402;6.276;2022-07-18T12:00:01;102190.0;;;30.4;26.4
67345;BME280;54230;52.402;6.276;2022-07-18T12:05:00;102180.0;;;30.8;26.0
67345;BME280;54230;52.402;6.276;2022-07-18T12:10:15;102180.0;;;30.2;26.2
67345;BME280;54230;52.402;6.276;2022-07-18T12:15:01;102170.0;;;30.1;26.3
67345;BME280;54230;52.402;6.276;2022-07-18T12:20:10;102170.0;;;30.7;26.2
67345;BME280;54230;52.402;6.276;2022-07-18T12:25:00;102170.0;;;31.2;25.8
67345;BME280;54230;52.402;6.276;2022-07-18T12:30:04;102160.0;;;31.5;25.0
67345;BME280;54230;52.402;6.276;2022-07-18T12:35:01;102160.0;;;31.6;25.1
67345;BME280;54230;52.402;6.276;2022-07-18T12:40:03;102160.0;;;31.9;24.1
67345;BME280;54230;52.402;6.276;2022-07-18T12:45:00;102160.0;;;32.0;24.3
67345;BME280;54230;52.402;6.276;2022-07-18T12:50:00;102150.0;;;32.3;23.8
67345;BME280;54230;52.402;6.276;2022-07-18T12:55:00;102150.0;;;32.6;23.9
67345;BME280;54230;52.402;6.276;2022-07-18T13:00:00;102150.0;;;32.9;23.8
67345;BME280;54230;52.402;6.276;2022-07-18T13:05:00;102140.0;;;33.2;23.8
67345;BME280;54230;52.402;6.276;2022-07-18T13:10:00;102140.0;;;33.4;23.5
67345;BME280;54230;52.402;6.276;2022-07-18T13:15:00;102130.0;;;33.5;22.9
67345;BME280;54230;52.402;6.276;2022-07-18T13:20:00;102130.0;;;33.7;22.9
67345;BME280;54230;52.402;6.276;2022-07-18T13:25:00;102120.0;;;34.0;23.0
67345;BME280;54230;52.402;6.276;2022-07-18T13:30:00;102110.0;;;34.0;22.9
67345;BME280;54230;52.402;6.276;2022-07-18T13:35:00;102110.0;;;34.1;20.9
67345;BME280;54230;52.402;6.276;2022-07-18T13:40:00;102110.0;;;34.2;21.6
67345;BME280;54230;52.402;6.276;2022-07-18T13:45:00;102100.0;;;34.5;21.4
67345;BME280;54230;52.402;6.276;2022-07-18T13:50:00;102100.0;;;35.1;21.4
67345;BME280;54230;52.402;6.276;2022-07-18T13:55:00;102100.0;;;35.1;20.9
67345;BME280;54230;52.402;6.276;2022-07-18T14:00:00;102090.0;;;35.2;21.1
67345;BME280;54230;52.402;6.276;2022-07-18T14:05:00;102090.0;;;35.5;21.0
67345;BME280;54230;52.402;6.276;2022-07-18T14:10:00;102090.0;;;35.6;20.5
67345;BME280;54230;52.402;6.276;2022-07-18T14:15:00;102090.0;;;36.2;21.0
67345;BME280;54230;52.402;6.276;2022-07-18T14:20:00;102080.0;;;36.3;19.8
67345;BME280;54230;52.402;6.276;2022-07-18T14:25:00;102070.0;;;36.5;19.9
67345;BME280;54230;52.402;6.276;2022-07-18T14:30:00;102070.0;;;37.4;19.4
67345;BME280;54230;52.402;6.276;2022-07-18T14:35:00;102070.0;;;37.8;18.6
67345;BME280;54230;52.402;6.276;2022-07-18T14:40:00;102060.0;;;38.0;18.4
67345;BME280;54230;52.402;6.276;2022-07-18T14:45:00;102060.0;;;38.3;18.4
67345;BME280;54230;52.402;6.276;2022-07-18T14:50:00;102060.0;;;38.8;18.2
67345;BME280;54230;52.402;6.276;2022-07-18T14:55:00;102060.0;;;39.3;17.5
67345;BME280;54230;52.402;6.276;2022-07-18T15:00:00;102050.0;;;39.8;17.1
67345;BME280;54230;52.402;6.276;2022-07-18T15:05:00;102050.0;;;40.7;16.6
67345;BME280;54230;52.402;6.276;2022-07-18T15:10:00;102050.0;;;40.5;15.6
67345;BME280;54230;52.402;6.276;2022-07-18T15:15:00;102040.0;;;40.8;16.5
67345;BME280;54230;52.402;6.276;2022-07-18T15:20:00;102030.0;;;40.8;15.9
67345;BME280;54230;52.402;6.276;2022-07-18T15:25:00;102030.0;;;41.2;15.7
67345;BME280;54230;52.402;6.276;2022-07-18T15:30:00;102030.0;;;41.7;15.3
67345;BME280;54230;52.402;6.276;2022-07-18T15:35:00;102030.0;;;42.2;14.9
67345;BME280;54230;52.402;6.276;2022-07-18T15:40:00;102020.0;;;42.5;14.4
67345;BME280;54230;52.402;6.276;2022-07-18T15:45:00;102010.0;;;42.4;14.7
67345;BME280;54230;52.402;6.276;2022-07-18T15:50:00;102010.0;;;42.4;14.4
67345;BME280;54230;52.402;6.276;2022-07-18T15:55:00;102000.0;;;43.0;14.3
67345;BME280;54230;52.402;6.276;2022-07-18T16:00:00;102000.0;;;43.1;13.0
67345;BME280;54230;52.402;6.276;2022-07-18T16:05:00;102000.0;;;43.0;12.8
67345;BME280;54230;52.402;6.276;2022-07-18T16:10:00;101990.0;;;43.0;12.5
67345;BME280;54230;52.402;6.276;2022-07-18T16:15:00;101980.0;;;43.0;12.1
67345;BME280;54230;52.402;6.276;2022-07-18T16:20:00;101980.0;;;43.4;12.8
67345;BME280;54230;52.402;6.276;2022-07-18T16:25:00;101980.0;;;44.2;12.3
67345;BME280;54230;52.402;6.276;2022-07-18T16:30:00;101970.0;;;43.8;11.8
67345;BME280;54230;52.402;6.276;2022-07-18T16:35:00;101970.0;;;43.6;12.0
67345;BME280;54230;52.402;6.276;2022-07-18T16:40:00;101970.0;;;43.4;11.9
67345;BME280;54230;52.402;6.276;2022-07-18T16:45:00;101960.0;;;43.9;11.6
67345;BME280;54230;52.402;6.276;2022-07-18T16:50:00;101950.0;;;43.5;12.1
67345;BME280;54230;52.402;6.276;2022-07-18T16:55:00;101950.0;;;44.0;11.4
67345;BME280;54230;52.402;6.276;2022-07-18T17:00:00;101950.0;;;44.3;11.6
67345;BME280;54230;52.402;6.276;2022-07-18T17:05:00;101950.0;;;44.8;11.1
67345;BME280;54230;52.402;6.276;2022-07-18T17:10:00;101950.0;;;44.6;11.8
67345;BME280;54230;52.402;6.276;2022-07-18T17:15:00;101940.0;;;44.8;11.9
67345;BME280;54230;52.402;6.276;2022-07-18T17:20:00;101950.0;;;45.4;11.9
67345;BME280;54230;52.402;6.276;2022-07-18T17:25:00;101940.0;;;45.4;11.8
67345;BME280;54230;52.402;6.276;2022-07-18T17:30:00;101930.0;;;45.0;12.2
67345;BME280;54230;52.402;6.276;2022-07-18T17:35:00;101940.0;;;45.4;12.0
67345;BME280;54230;52.402;6.276;2022-07-18T17:40:00;101940.0;;;45.6;12.2
67345;BME280;54230;52.402;6.276;2022-07-18T17:45:00;101940.0;;;45.3;12.8
67345;BME280;54230;52.402;6.276;2022-07-18T17:50:00;101940.0;;;45.8;12.7
67345;BME280;54230;52.402;6.276;2022-07-18T17:55:01;101940.0;;;45.5;12.9
67345;BME280;54230;52.402;6.276;2022-07-18T18:00:00;101930.0;;;45.5;12.8
67345;BME280;54230;52.402;6.276;2022-07-18T18:05:00;101940.0;;;45.2;13.7
67345;BME280;54230;52.402;6.276;2022-07-18T18:10:00;101940.0;;;44.9;14.1
67345;BME280;54230;52.402;6.276;2022-07-18T18:15:00;101940.0;;;44.4;14.6
67345;BME280;54230;52.402;6.276;2022-07-18T18:20:00;101940.0;;;44.0;15.2
67345;BME280;54230;52.402;6.276;2022-07-18T18:25:00;101940.0;;;43.6;15.7
67345;BME280;54230;52.402;6.276;2022-07-18T18:30:00;101930.0;;;43.1;16.7
67345;BME280;54230;52.402;6.276;2022-07-18T18:35:00;101930.0;;;42.7;17.3
67345;BME280;54230;52.402;6.276;2022-07-18T18:40:00;101930.0;;;42.7;18.1
67345;BME280;54230;52.402;6.276;2022-07-18T18:45:00;101940.0;;;42.3;17.8
67345;BME280;54230;52.402;6.276;2022-07-18T18:50:00;101930.0;;;41.4;19.0
67345;BME280;54230;52.402;6.276;2022-07-18T18:55:00;101930.0;;;40.2;21.3
67345;BME280;54230;52.402;6.276;2022-07-18T19:00:00;101920.0;;;37.9;23.7
67345;BME280;54230;52.402;6.276;2022-07-18T19:05:00;101930.0;;;36.7;25.4
67345;BME280;54230;52.402;6.276;2022-07-18T19:10:00;101920.0;;;36.1;25.7
67345;BME280;54230;52.402;6.276;2022-07-18T19:15:00;101920.0;;;35.3;26.5
67345;BME280;54230;52.402;6.276;2022-07-18T19:20:00;101930.0;;;34.6;27.4
67345;BME280;54230;52.402;6.276;2022-07-18T19:25:00;101930.0;;;34.2;29.9
67345;BME280;54230;52.402;6.276;2022-07-18T19:30:00;101920.0;;;33.8;32.2
67345;BME280;54230;52.402;6.276;2022-07-18T19:35:00;101930.0;;;33.7;31.7
67345;BME280;54230;52.402;6.276;2022-07-18T19:40:00;101930.0;;;33.3;32.6
67345;BME280;54230;52.402;6.276;2022-07-18T19:45:00;101930.0;;;32.9;32.8
67345;BME280;54230;52.402;6.276;2022-07-18T19:50:00;101930.0;;;32.7;33.7
67345;BME280;54230;52.402;6.276;2022-07-18T19:55:00;101940.0;;;32.3;35.8
67345;BME280;54230;52.402;6.276;2022-07-18T20:00:00;101930.0;;;31.9;36.6
67345;BME280;54230;52.402;6.276;2022-07-18T20:05:00;101940.0;;;31.4;36.5
67345;BME280;54230;52.402;6.276;2022-07-18T20:10:00;101940.0;;;31.3;37.0
67345;BME280;54230;52.402;6.276;2022-07-18T20:15:00;101940.0;;;31.2;37.2
67345;BME280;54230;52.402;6.276;2022-07-18T20:20:00;101950.0;;;30.8;38.4
67345;BME280;54230;52.402;6.276;2022-07-18T20:25:00;101940.0;;;30.5;39.3
67345;BME280;54230;52.402;6.276;2022-07-18T20:30:00;101940.0;;;30.1;38.9
67345;BME280;54230;52.402;6.276;2022-07-18T20:35:00;101940.0;;;29.8;39.6
67345;BME280;54230;52.402;6.276;2022-07-18T20:40:00;101940.0;;;29.2;40.8
67345;BME280;54230;52.402;6.276;2022-07-18T20:45:00;101940.0;;;29.0;41.0
67345;BME280;54230;52.402;6.276;2022-07-18T20:50:00;101940.0;;;28.9;41.4
67345;BME280;54230;52.402;6.276;2022-07-18T20:55:00;101940.0;;;29.0;41.8
67345;BME280;54230;52.402;6.276;2022-07-18T21:00:00;101930.0;;;29.0;41.4
67345;BME280;54230;52.402;6.276;2022-07-18T21:05:00;101940.0;;;28.9;42.5
67345;BME280;54230;52.402;6.276;2022-07-18T21:10:00;101940.0;;;28.3;43.5
67345;BME280;54230;52.402;6.276;2022-07-18T21:15:00;101930.0;;;28.1;42.7
67345;BME280;54230;52.402;6.276;2022-07-18T21:20:00;101930.0;;;28.1;43.5
67345;BME280;54230;52.402;6.276;2022-07-18T21:25:00;101930.0;;;27.9;43.9
67345;BME280;54230;52.402;6.276;2022-07-18T21:30:01;101920.0;;;27.6;44.5
67345;BME280;54230;52.402;6.276;2022-07-18T21:35:00;101920.0;;;27.4;45.0
67345;BME280;54230;52.402;6.276;2022-07-18T21:40:00;101920.0;;;27.6;44.8
67345;BME280;54230;52.402;6.276;2022-07-18T21:45:00;101930.0;;;27.5;44.7
67345;BME280;54230;52.402;6.276;2022-07-18T21:50:00;101930.0;;;27.5;44.9
67345;BME280;54230;52.402;6.276;2022-07-18T21:55:00;101930.0;;;27.4;45.4
67345;BME280;54230;52.402;6.276;2022-07-18T22:00:00;101920.0;;;27.3;46.0
67345;BME280;54230;52.402;6.276;2022-07-18T22:05:00;101930.0;;;27.2;46.9
67345;BME280;54230;52.402;6.276;2022-07-18T22:10:00;101920.0;;;26.9;47.8
67345;BME280;54230;52.402;6.276;2022-07-18T22:15:00;101910.0;;;26.8;47.9
67345;BME280;54230;52.402;6.276;2022-07-18T22:20:00;101910.0;;;26.5;47.6
67345;BME280;54230;52.402;6.276;2022-07-18T22:25:00;101910.0;;;26.3;48.2
67345;BME280;54230;52.402;6.276;2022-07-18T22:30:00;101910.0;;;26.2;48.8
67345;BME280;54230;52.402;6.276;2022-07-18T22:35:00;101910.0;;;26.0;49.1
67345;BME280;54230;52.402;6.276;2022-07-18T22:40:00;101900.0;;;26.0;49.2
67345;BME280;54230;52.402;6.276;2022-07-18T22:45:00;101900.0;;;25.6;50.0
67345;BME280;54230;52.402;6.276;2022-07-18T22:50:00;101900.0;;;25.4;50.8
67345;BME280;54230;52.402;6.276;2022-07-18T22:55:00;101900.0;;;24.9;52.2
67345;BME280;54230;52.402;6.276;2022-07-18T23:00:00;101890.0;;;24.8;52.6
67345;BME280;54230;52.402;6.276;2022-07-18T23:05:00;101890.0;;;24.8;52.5
67345;BME280;54230;52.402;6.276;2022-07-18T23:10:00;101880.0;;;24.8;52.8
67345;BME280;54230;52.402;6.276;2022-07-18T23:15:00;101890.0;;;24.5;53.6
67345;BME280;54230;52.402;6.276;2022-07-18T23:20:00;101880.0;;;24.5;53.7
67345;BME280;54230;52.402;6.276;2022-07-18T23:25:00;101880.0;;;24.5;53.9
67345;BME280;54230;52.402;6.276;2022-07-18T23:30:00;101880.0;;;24.4;54.0
67345;BME280;54230;52.402;6.276;2022-07-18T23:35:00;101880.0;;;24.4;54.1
67345;BME280;54230;52.402;6.276;2022-07-18T23:40:00;101880.0;;;24.4;53.8
67345;BME280;54230;52.402;6.276;2022-07-18T23:45:00;101880.0;;;24.4;54.0
67345;BME280;54230;52.402;6.276;2022-07-18T23:50:00;101880.0;;;24.3;54.2
67345;BME280;54230;52.402;6.276;2022-07-18T23:55:00;101880.0;;;24.2;54.4
